createdAt,value
2019-02-17T00:02:12.017Z,81.15
2019-02-17T00:04:41.198Z,81.08
2019-02-17T00:07:10.485Z,81.23
2019-02-17T00:09:39.724Z,81.45
2019-02-17T00:12:08.882Z,81.03
2019-02-17T00:14:38.410Z,80.96
2019-02-17T00:17:07.614Z,80.93
2019-02-17T00:19:36.853Z,81.00
2019-02-17T00:22:06.029Z,81.09
2019-02-17T00:24:35.279Z,80.98
2019-02-17T00:27:04.817Z,81.61
2019-02-17T00:29:34.072Z,81.24
2019-02-17T00:32:03.308Z,81.15
2019-02-17T00:34:32.493Z,81.02
2019-02-17T00:37:02.619Z,81.29
2019-02-17T00:39:31.780Z,81.30
2019-02-17T00:42:02.858Z,81.68
2019-02-17T00:44:32.355Z,81.38
2019-02-17T00:47:04.478Z,81.46
2019-02-17T00:49:33.659Z,81.34
2019-02-17T00:52:03.012Z,81.37
2019-02-17T00:54:32.244Z,81.07
2019-02-17T00:57:01.419Z,80.94
2019-02-17T00:59:30.784Z,80.92
2019-02-17T01:01:59.972Z,81.27
2019-02-17T01:04:29.123Z,81.46
2019-02-17T01:06:58.288Z,81.33
2019-02-17T01:09:27.494Z,81.37
2019-02-17T01:11:56.791Z,81.70
2019-02-17T01:14:25.981Z,81.51
2019-02-17T01:16:55.127Z,81.62
2019-02-17T01:19:24.340Z,81.92
2019-02-17T01:21:53.533Z,81.95
2019-02-17T01:24:22.746Z,81.99
2019-02-17T01:26:52.026Z,81.93
2019-02-17T01:29:21.278Z,81.80
2019-02-17T01:31:50.492Z,81.75
2019-02-17T01:34:19.795Z,81.87
2019-02-17T01:36:49.148Z,81.68
2019-02-17T01:39:18.369Z,81.75
2019-02-17T01:41:47.703Z,81.81
2019-02-17T01:44:16.964Z,81.68
2019-02-17T01:46:46.384Z,81.44
2019-02-17T01:49:15.540Z,81.42
2019-02-17T01:51:44.779Z,81.47
2019-02-17T01:54:14.008Z,81.74
2019-02-17T01:56:43.219Z,81.81
2019-02-17T01:59:12.380Z,81.98
2019-02-17T02:01:41.536Z,81.77
2019-02-17T02:04:10.746Z,81.70
2019-02-17T02:06:39.914Z,81.97
2019-02-17T02:09:10.690Z,81.84
2019-02-17T02:11:39.856Z,81.80
2019-02-17T02:14:09.048Z,82.29
2019-02-17T02:16:38.219Z,82.23
2019-02-17T02:19:07.418Z,82.01
2019-02-17T02:21:36.566Z,82.11
2019-02-17T02:24:05.961Z,81.92
2019-02-17T02:26:35.207Z,82.02
2019-02-17T02:29:04.396Z,82.13
2019-02-17T02:31:33.664Z,81.92
2019-02-17T02:34:02.872Z,81.70
2019-02-17T02:36:32.129Z,81.83
2019-02-17T02:39:04.444Z,82.25
2019-02-17T02:41:34.999Z,82.26
2019-02-17T02:44:04.592Z,82.30
2019-02-17T02:46:34.380Z,82.17
2019-02-17T02:49:03.646Z,82.13
2019-02-17T02:51:32.949Z,82.18
2019-02-17T02:54:02.387Z,82.20
2019-02-17T02:56:31.537Z,82.58
2019-02-17T02:59:02.425Z,81.67
2019-02-17T03:01:31.719Z,81.76
2019-02-17T03:04:02.521Z,81.87
2019-02-17T03:06:59.730Z,82.17
2019-02-17T03:09:28.883Z,82.11
2019-02-17T03:11:58.079Z,81.64
2019-02-17T03:14:27.237Z,81.84
2019-02-17T03:16:56.488Z,82.01
2019-02-17T03:19:25.623Z,82.32
2019-02-17T03:21:54.801Z,82.30
2019-02-17T03:24:24.063Z,81.98
2019-02-17T03:26:53.280Z,81.88
2019-02-17T03:29:22.537Z,82.38
2019-02-17T03:31:51.753Z,82.52
2019-02-17T03:34:21.153Z,82.36
2019-02-17T03:36:50.339Z,82.45
2019-02-17T03:39:19.532Z,82.59
2019-02-17T03:41:48.743Z,82.66
2019-02-17T03:44:17.952Z,82.66
2019-02-17T03:46:47.497Z,82.74
2019-02-17T03:49:16.696Z,83.38
2019-02-17T03:51:45.992Z,83.37
2019-02-17T03:54:15.260Z,83.09
2019-02-17T03:56:44.536Z,83.23
2019-02-17T03:59:13.846Z,83.12
2019-02-17T04:01:43.237Z,83.15
2019-02-17T04:04:12.398Z,83.38
2019-02-17T04:06:41.946Z,83.37
2019-02-17T04:09:11.100Z,83.42
2019-02-17T04:11:40.345Z,83.65
2019-02-17T04:14:09.575Z,83.64
2019-02-17T04:16:38.740Z,83.68
2019-02-17T04:19:07.941Z,83.60
2019-02-17T04:21:37.231Z,83.62
2019-02-17T04:24:06.381Z,83.64
2019-02-17T04:26:35.521Z,83.47
2019-02-17T04:29:06.748Z,83.61
2019-02-17T04:31:35.913Z,83.83
2019-02-17T04:34:05.277Z,83.83
2019-02-17T04:36:34.473Z,83.79
2019-02-17T04:39:04.731Z,83.86
2019-02-17T04:41:33.957Z,83.88
2019-02-17T04:44:03.160Z,83.82
2019-02-17T04:46:32.719Z,83.94
2019-02-17T04:49:01.904Z,83.92
2019-02-17T04:51:31.099Z,83.77
2019-02-17T04:54:00.302Z,83.74
2019-02-17T04:56:29.476Z,83.88
2019-02-17T04:58:58.618Z,83.79
2019-02-17T05:01:27.768Z,83.71
2019-02-17T05:03:56.950Z,84.01
2019-02-17T05:06:26.118Z,84.46
2019-02-17T05:08:55.279Z,84.18
2019-02-17T05:11:24.791Z,83.94
2019-02-17T05:13:53.944Z,83.96
2019-02-17T05:16:23.101Z,83.92
2019-02-17T05:18:52.388Z,84.10
2019-02-17T05:21:21.595Z,84.22
2019-02-17T05:23:50.811Z,83.77
2019-02-17T05:26:20.009Z,83.64
2019-02-17T05:28:49.201Z,83.62
2019-02-17T05:31:18.429Z,83.73
2019-02-17T05:33:47.612Z,83.74
2019-02-17T05:36:16.791Z,84.00
2019-02-17T05:38:45.972Z,84.22
2019-02-17T05:41:15.248Z,84.41
2019-02-17T05:43:44.476Z,84.47
2019-02-17T05:46:13.667Z,84.48
2019-02-17T05:48:42.818Z,84.56
2019-02-17T05:51:12.006Z,84.65
2019-02-17T05:53:41.201Z,84.67
2019-02-17T05:56:10.346Z,84.96
2019-02-17T05:58:39.496Z,84.84
2019-02-17T06:01:08.698Z,84.59
2019-02-17T06:03:37.945Z,84.71
2019-02-17T06:06:07.244Z,84.29
2019-02-17T06:08:36.392Z,83.22
2019-02-17T06:11:05.574Z,82.42
2019-02-17T06:13:34.734Z,81.12
2019-02-17T06:16:03.886Z,82.02
2019-02-17T06:18:33.196Z,82.78
2019-02-17T06:21:02.809Z,83.30
2019-02-17T06:23:31.978Z,83.59
2019-02-17T06:26:03.751Z,84.06
2019-02-17T06:28:33.040Z,84.07
2019-02-17T06:31:02.368Z,83.88
2019-02-17T06:33:31.704Z,83.02
2019-02-17T06:36:02.198Z,82.94
2019-02-17T06:38:31.455Z,82.98
2019-02-17T06:41:00.808Z,83.30
2019-02-17T06:43:30.020Z,83.53
2019-02-17T06:45:59.484Z,83.79
2019-02-17T06:48:28.803Z,84.05
2019-02-17T06:50:57.959Z,84.19
2019-02-17T06:53:27.227Z,84.42
2019-02-17T06:56:04.035Z,84.54
2019-02-17T06:58:33.257Z,84.59
2019-02-17T07:01:03.231Z,84.48
2019-02-17T07:03:32.535Z,84.40
2019-02-17T07:06:29.549Z,84.48
2019-02-17T07:08:58.831Z,84.51
2019-02-17T07:11:27.985Z,84.65
2019-02-17T07:13:57.139Z,84.77
2019-02-17T07:16:26.615Z,84.94
2019-02-17T07:18:55.863Z,84.83
2019-02-17T07:21:25.017Z,84.83
2019-02-17T07:23:54.525Z,84.90
2019-02-17T07:26:23.830Z,84.89
2019-02-17T07:28:52.994Z,84.92
2019-02-17T07:31:22.684Z,85.02
2019-02-17T07:33:51.986Z,85.13
2019-02-17T07:36:22.099Z,85.12
2019-02-17T07:38:51.425Z,85.21
2019-02-17T07:41:20.892Z,84.87
2019-02-17T07:43:50.089Z,84.65
2019-02-17T07:46:19.311Z,84.54
2019-02-17T07:48:48.607Z,84.07
2019-02-17T07:51:17.777Z,83.36
2019-02-17T07:53:46.940Z,81.64
2019-02-17T07:56:16.127Z,80.43
2019-02-17T07:58:45.300Z,79.66
2019-02-17T08:01:14.456Z,79.39
2019-02-17T08:03:43.638Z,79.44
2019-02-17T08:06:12.801Z,78.67
2019-02-17T08:08:42.220Z,78.36
2019-02-17T08:11:11.479Z,78.09
2019-02-17T08:13:40.755Z,78.56
2019-02-17T08:16:10.089Z,78.46
2019-02-17T08:18:39.376Z,78.63
2019-02-17T08:21:08.548Z,78.53
2019-02-17T08:23:37.734Z,77.36
2019-02-17T08:26:06.920Z,77.34
2019-02-17T08:28:36.288Z,77.78
2019-02-17T08:31:05.562Z,77.08
2019-02-17T08:33:34.753Z,76.53
2019-02-17T08:36:03.910Z,76.34
2019-02-17T08:38:33.619Z,76.38
2019-02-17T08:41:02.819Z,75.86
2019-02-17T08:43:32.031Z,75.57
2019-02-17T08:46:02.633Z,75.23
2019-02-17T08:48:32.807Z,74.74
2019-02-17T08:51:02.045Z,74.36
2019-02-17T08:53:31.214Z,74.24
2019-02-17T08:56:00.412Z,73.40
2019-02-17T08:58:29.596Z,73.60
2019-02-17T09:00:58.795Z,73.32
2019-02-17T09:03:28.139Z,73.09
2019-02-17T09:05:57.312Z,72.86
2019-02-17T09:08:26.486Z,72.74
2019-02-17T09:10:55.936Z,72.52
2019-02-17T09:13:25.152Z,71.75
2019-02-17T09:15:54.307Z,71.89
2019-02-17T09:18:23.518Z,71.66
2019-02-17T09:20:52.769Z,71.00
2019-02-17T09:23:22.410Z,70.84
2019-02-17T09:25:51.694Z,70.43
2019-02-17T09:28:20.883Z,70.33
2019-02-17T09:30:50.085Z,69.87
2019-02-17T09:33:19.752Z,69.12
2019-02-17T09:35:49.406Z,68.36
2019-02-17T09:38:18.543Z,68.05
2019-02-17T09:40:48.116Z,67.73
2019-02-17T09:43:17.384Z,67.44
2019-02-17T09:45:46.579Z,67.65
2019-02-17T09:48:15.978Z,67.14
2019-02-17T09:50:45.137Z,67.11
2019-02-17T09:53:14.302Z,66.99
2019-02-17T09:55:43.620Z,66.75
2019-02-17T09:58:13.291Z,66.22
2019-02-17T10:00:42.511Z,66.34
2019-02-17T10:03:11.826Z,65.96
2019-02-17T10:05:41.123Z,66.00
2019-02-17T10:08:10.498Z,65.44
2019-02-17T10:10:39.707Z,65.13
2019-02-17T10:13:08.967Z,64.93
2019-02-17T10:15:38.133Z,64.67
2019-02-17T10:18:07.458Z,64.31
2019-02-17T10:20:36.708Z,63.99
2019-02-17T10:23:06.023Z,63.23
2019-02-17T10:25:35.329Z,63.62
2019-02-17T10:28:05.178Z,62.54
2019-02-17T10:30:34.625Z,61.74
2019-02-17T10:33:03.783Z,61.10
2019-02-17T10:35:32.932Z,60.56
2019-02-17T10:38:02.554Z,60.91
2019-02-17T10:40:31.690Z,60.59
2019-02-17T10:43:03.691Z,60.30
2019-02-17T10:45:32.895Z,60.38
2019-02-17T10:48:02.143Z,59.90
2019-02-17T10:50:31.362Z,60.23
2019-02-17T10:53:00.687Z,60.09
2019-02-17T10:55:29.857Z,59.80
2019-02-17T10:57:59.103Z,59.62
2019-02-17T11:00:30.151Z,59.94
2019-02-17T11:03:06.020Z,59.52
2019-02-17T11:05:35.215Z,58.89
2019-02-17T11:08:04.504Z,58.62
2019-02-17T11:10:33.685Z,58.73
2019-02-17T11:13:02.910Z,57.97
2019-02-17T11:15:32.265Z,57.92
2019-02-17T11:18:02.943Z,57.67
2019-02-17T11:20:32.080Z,57.58
2019-02-17T11:23:01.370Z,57.37
2019-02-17T11:25:30.630Z,57.00
2019-02-17T11:27:59.808Z,56.92
2019-02-17T11:30:29.253Z,57.23
2019-02-17T11:32:58.452Z,57.19
2019-02-17T11:35:29.788Z,57.23
2019-02-17T11:37:58.561Z,56.51
2019-02-17T11:40:27.814Z,55.18
2019-02-17T11:42:56.989Z,55.24
2019-02-17T11:45:26.226Z,54.37
2019-02-17T11:47:55.516Z,54.59
2019-02-17T11:50:24.897Z,53.30
2019-02-17T11:52:54.172Z,53.38
2019-02-17T11:55:23.440Z,53.24
2019-02-17T11:57:52.744Z,53.80
2019-02-17T12:00:24.154Z,53.09
2019-02-17T12:02:53.313Z,53.00
2019-02-17T12:05:22.481Z,52.29
2019-02-17T12:07:51.687Z,52.33
2019-02-17T12:10:22.121Z,52.43
2019-02-17T12:12:51.301Z,51.78
2019-02-17T12:15:20.591Z,51.31
2019-02-17T12:17:49.801Z,51.08
2019-02-17T12:20:50.338Z,50.74
2019-02-17T12:23:32.965Z,50.31
2019-02-17T12:26:21.080Z,49.76
2019-02-17T12:29:00.763Z,50.00
2019-02-17T12:31:34.131Z,49.86
2019-02-17T12:34:03.352Z,50.19
2019-02-17T12:36:32.662Z,48.70
2019-02-17T12:39:02.615Z,48.49
2019-02-17T12:41:31.791Z,46.43
2019-02-17T12:44:02.240Z,46.43
2019-02-17T12:46:31.659Z,47.40
2019-02-17T12:49:02.673Z,46.37
2019-02-17T12:51:31.685Z,48.51
2019-02-17T12:54:01.792Z,44.86
2019-02-17T12:56:31.008Z,41.42
2019-02-17T12:59:00.229Z,42.66
2019-02-17T13:01:29.407Z,41.94
2019-02-17T13:03:58.624Z,42.64
2019-02-17T13:06:27.844Z,40.15
2019-02-17T13:08:57.082Z,39.84
2019-02-17T13:11:26.283Z,44.55
2019-02-17T13:13:55.473Z,46.10
2019-02-17T13:16:24.901Z,47.40
2019-02-17T13:18:54.122Z,47.77
2019-02-17T13:21:23.356Z,48.33
2019-02-17T13:23:52.777Z,47.67
2019-02-17T13:26:21.985Z,45.04
2019-02-17T13:28:51.191Z,44.15
2019-02-17T13:31:20.372Z,46.17
2019-02-17T13:33:49.570Z,43.79
2019-02-17T13:36:18.792Z,40.93
2019-02-17T13:38:48.278Z,41.38
2019-02-17T13:41:17.487Z,45.15
2019-02-17T13:43:46.674Z,43.52
2019-02-17T13:46:15.887Z,44.33
2019-02-17T13:48:45.070Z,45.71
2019-02-17T13:51:14.274Z,45.47
2019-02-17T13:53:43.461Z,46.54
2019-02-17T13:56:12.840Z,45.36
2019-02-17T13:58:42.152Z,46.60
2019-02-17T14:01:11.343Z,47.27
2019-02-17T14:03:48.448Z,47.19
2019-02-17T14:06:11.653Z,47.26
2019-02-17T14:08:40.944Z,46.06
2019-02-17T14:11:10.144Z,46.34
2019-02-17T14:13:39.547Z,45.70
2019-02-17T14:16:08.736Z,46.70
2019-02-17T14:18:37.941Z,47.41
2019-02-17T14:21:07.139Z,47.20
2019-02-17T14:23:36.303Z,46.56
2019-02-17T14:26:05.469Z,46.94
2019-02-17T14:28:34.802Z,46.01
2019-02-17T14:31:04.033Z,46.42
2019-02-17T14:33:33.355Z,46.06
2019-02-17T14:36:02.601Z,46.43
2019-02-17T14:38:31.856Z,46.48
2019-02-17T14:41:02.177Z,46.13
2019-02-17T14:43:31.496Z,46.54
2019-02-17T14:46:00.732Z,46.12
2019-02-17T14:48:30.013Z,46.60
2019-02-17T14:50:59.177Z,46.91
2019-02-17T14:53:28.437Z,45.62
2019-02-17T14:55:57.635Z,46.20
2019-02-17T14:58:27.071Z,45.61
2019-02-17T15:00:56.474Z,44.74
2019-02-17T15:03:25.969Z,45.27
2019-02-17T15:05:55.168Z,45.73
2019-02-17T15:08:26.886Z,45.54
2019-02-17T15:10:56.065Z,43.17
2019-02-17T15:13:25.278Z,42.84
2019-02-17T15:15:54.565Z,40.61
2019-02-17T15:18:23.813Z,41.09
2019-02-17T15:20:52.999Z,40.63
2019-02-17T15:23:22.312Z,40.71
2019-02-17T15:25:51.850Z,40.94
2019-02-17T15:28:21.090Z,41.17
2019-02-17T15:30:50.282Z,41.65
2019-02-17T15:33:19.483Z,41.07
2019-02-17T15:35:48.772Z,41.50
2019-02-17T15:38:17.998Z,42.07
2019-02-17T15:40:47.330Z,42.21
2019-02-17T15:43:16.970Z,42.49
2019-02-17T15:45:46.431Z,42.70
2019-02-17T15:48:15.989Z,45.68
2019-02-17T15:50:45.159Z,47.09
2019-02-17T15:53:14.352Z,48.11
2019-02-17T15:55:43.588Z,48.89
2019-02-17T15:58:12.815Z,49.82
2019-02-17T16:00:42.446Z,49.98
2019-02-17T16:03:11.824Z,50.53
2019-02-17T16:05:41.260Z,50.95
2019-02-17T16:08:10.731Z,51.13
2019-02-17T16:10:39.908Z,51.36
2019-02-17T16:13:09.079Z,51.28
2019-02-17T16:15:38.429Z,51.38
2019-02-17T16:18:07.831Z,51.36
2019-02-17T16:20:37.122Z,51.71
2019-02-17T16:23:06.535Z,52.66
2019-02-17T16:25:35.811Z,53.20
2019-02-17T16:28:05.105Z,53.55
2019-02-17T16:30:34.336Z,53.90
2019-02-17T16:33:03.562Z,54.32
2019-02-17T16:35:32.787Z,54.89
2019-02-17T16:38:01.993Z,55.48
2019-02-17T16:40:31.205Z,55.84
2019-02-17T16:43:00.561Z,56.31
2019-02-17T16:45:29.805Z,57.32
2019-02-17T16:47:59.196Z,57.33
2019-02-17T16:50:28.508Z,57.71
2019-02-17T16:52:57.732Z,58.50
2019-02-17T16:55:27.086Z,59.39
2019-02-17T16:57:56.322Z,59.77
2019-02-17T17:00:25.729Z,59.76
2019-02-17T17:02:54.973Z,58.96
2019-02-17T17:05:24.371Z,58.72
2019-02-17T17:07:53.626Z,59.16
2019-02-17T17:10:22.861Z,59.85
2019-02-17T17:12:52.217Z,60.58
2019-02-17T17:15:21.593Z,60.29
2019-02-17T17:17:51.057Z,59.55
2019-02-17T17:20:20.428Z,60.00
2019-02-17T17:22:49.699Z,59.38
2019-02-17T17:25:19.249Z,59.38
2019-02-17T17:27:48.558Z,59.91
2019-02-17T17:30:18.277Z,60.08
2019-02-17T17:32:47.526Z,59.80
2019-02-17T17:35:16.899Z,60.25
2019-02-17T17:37:46.370Z,60.95
2019-02-17T17:40:15.642Z,60.81
2019-02-17T17:42:45.024Z,60.83
2019-02-17T17:45:14.497Z,61.02
2019-02-17T17:47:44.019Z,61.45
2019-02-17T17:50:13.886Z,61.93
2019-02-17T17:52:44.212Z,62.57
2019-02-17T17:55:14.076Z,62.68
2019-02-17T17:57:43.233Z,63.20
2019-02-17T18:00:14.507Z,63.41
2019-02-17T18:02:43.720Z,64.12
2019-02-17T18:05:13.343Z,64.43
2019-02-17T18:07:42.611Z,64.83
2019-02-17T18:10:14.047Z,65.02
2019-02-17T18:12:43.485Z,65.42
2019-02-17T18:15:13.429Z,65.68
2019-02-17T18:17:42.788Z,65.84
2019-02-17T18:20:12.494Z,66.08
2019-02-17T18:22:41.831Z,67.17
2019-02-17T18:25:12.967Z,67.09
2019-02-17T18:27:42.271Z,67.77
2019-02-17T18:30:12.752Z,67.77
2019-02-17T18:32:43.311Z,67.97
2019-02-17T18:35:19.584Z,68.13
2019-02-17T18:37:43.809Z,68.32
2019-02-17T18:40:13.732Z,68.55
2019-02-17T18:42:44.974Z,69.41
2019-02-17T18:45:14.412Z,69.04
2019-02-17T18:47:43.845Z,69.02
2019-02-17T18:50:13.710Z,69.49
2019-02-17T18:52:44.677Z,69.97
2019-02-17T18:55:15.562Z,70.06
2019-02-17T18:57:49.991Z,70.55
2019-02-17T19:00:17.618Z,70.66
2019-02-17T19:02:47.256Z,70.81
2019-02-17T19:05:16.507Z,72.05
2019-02-17T19:07:45.755Z,71.44
2019-02-17T19:10:16.542Z,71.56
2019-02-17T19:12:46.313Z,71.50
2019-02-17T19:15:15.564Z,71.83
2019-02-17T19:17:44.972Z,72.70
2019-02-17T19:20:20.786Z,73.09
2019-02-17T19:22:50.099Z,73.29
2019-02-17T19:25:20.974Z,73.02
2019-02-17T19:27:50.325Z,73.69
2019-02-17T19:30:20.873Z,73.25
2019-02-17T19:32:50.508Z,73.10
2019-02-17T19:35:19.698Z,73.30
2019-02-17T19:37:49.469Z,73.64
2019-02-17T19:40:18.842Z,73.76
2019-02-17T19:42:48.600Z,73.79
2019-02-17T19:45:17.887Z,72.29
2019-02-17T19:47:47.250Z,72.36
2019-02-17T19:50:16.887Z,72.17
2019-02-17T19:52:46.393Z,71.74
2019-02-17T19:55:15.736Z,71.30
2019-02-17T19:57:46.009Z,70.67
2019-02-17T20:00:15.594Z,70.74
2019-02-17T20:02:52.005Z,71.54
2019-02-17T20:05:23.898Z,71.14
2019-02-17T20:07:53.496Z,71.37
2019-02-17T20:10:23.057Z,71.03
2019-02-17T20:12:54.795Z,70.93
2019-02-17T20:15:25.935Z,71.20
2019-02-17T20:17:55.759Z,71.46
2019-02-17T20:20:27.601Z,71.20
2019-02-17T20:22:57.271Z,71.20
2019-02-17T20:25:27.558Z,70.83
2019-02-17T20:27:57.130Z,70.48
2019-02-17T20:30:26.463Z,70.62
2019-02-17T20:32:57.895Z,70.94
2019-02-17T20:35:27.344Z,70.76
2019-02-17T20:37:56.694Z,71.21
2019-02-17T20:40:26.197Z,71.16
2019-02-17T20:42:55.487Z,69.77
2019-02-17T20:45:25.078Z,69.15
2019-02-17T20:47:54.507Z,69.67
2019-02-17T20:50:23.959Z,70.27
2019-02-17T20:52:53.185Z,70.67
2019-02-17T20:55:22.575Z,70.97
2019-02-17T20:57:51.956Z,69.96
2019-02-17T21:00:24.326Z,70.06
2019-02-17T21:02:55.225Z,70.09
2019-02-17T21:05:24.471Z,69.36
2019-02-17T21:07:54.617Z,68.52
2019-02-17T21:10:23.842Z,67.01
2019-02-17T21:12:53.930Z,67.18
2019-02-17T21:15:24.196Z,67.34
2019-02-17T21:17:53.519Z,65.65
2019-02-17T21:20:23.096Z,64.13
2019-02-17T21:22:53.161Z,62.49
2019-02-17T21:25:22.497Z,61.64
2019-02-17T21:27:51.764Z,61.11
2019-02-17T21:30:21.328Z,60.64
2019-02-17T21:32:50.628Z,59.97
2019-02-17T21:35:19.855Z,59.24
2019-02-17T21:37:49.536Z,59.05
2019-02-17T21:40:19.277Z,58.50
2019-02-17T21:42:48.450Z,57.87
2019-02-17T21:45:17.749Z,57.20
2019-02-17T21:47:46.938Z,57.14
2019-02-17T21:50:16.260Z,56.75
2019-02-17T21:52:45.560Z,56.44
2019-02-17T21:55:15.025Z,56.26
2019-02-17T21:57:44.255Z,56.74
2019-02-17T22:00:14.509Z,56.67
2019-02-17T22:02:43.969Z,56.52
2019-02-17T22:05:13.260Z,56.96
2019-02-17T22:07:42.448Z,57.11
2019-02-17T22:10:13.286Z,57.23
2019-02-17T22:12:42.661Z,57.21
2019-02-17T22:15:13.590Z,56.94
2019-02-17T22:17:43.043Z,57.05
2019-02-17T22:20:31.902Z,56.63
2019-02-17T22:23:02.788Z,56.76
2019-02-17T22:25:31.944Z,57.40
2019-02-17T22:28:01.093Z,57.19
2019-02-17T22:30:30.283Z,56.59
2019-02-17T22:32:59.874Z,56.70
2019-02-17T22:35:29.422Z,56.33
2019-02-17T22:37:58.606Z,56.01
2019-02-17T22:40:28.024Z,55.72
2019-02-17T22:42:57.171Z,55.41
2019-02-17T22:45:26.371Z,55.53
2019-02-17T22:47:55.528Z,55.38
2019-02-17T22:50:24.708Z,55.55
2019-02-17T22:52:53.913Z,55.50
2019-02-17T22:55:23.226Z,55.61
2019-02-17T22:57:52.387Z,55.85
2019-02-17T23:00:37.472Z,56.27
2019-02-17T23:03:06.717Z,56.36
2019-02-17T23:05:36.040Z,56.30
2019-02-17T23:08:05.241Z,56.45
2019-02-17T23:10:34.442Z,56.98
2019-02-17T23:13:03.720Z,56.86
2019-02-17T23:15:32.910Z,57.03
2019-02-17T23:18:02.375Z,56.94
2019-02-17T23:20:31.587Z,56.79
2019-02-17T23:23:00.817Z,56.82
2019-02-17T23:25:29.972Z,57.25
2019-02-17T23:27:59.203Z,57.22
2019-02-17T23:30:28.391Z,57.19
2019-02-17T23:32:57.569Z,57.38
2019-02-17T23:35:27.125Z,57.34
2019-02-17T23:37:56.302Z,57.41
2019-02-17T23:40:25.460Z,57.45
2019-02-17T23:42:54.651Z,57.37
2019-02-17T23:45:23.910Z,57.34
2019-02-17T23:47:53.458Z,57.30
2019-02-17T23:50:23.408Z,57.57
2019-02-17T23:52:54.504Z,57.62
2019-02-17T23:55:23.720Z,57.52
2019-02-17T23:57:52.882Z,57.59
